sensor_id;sensor_type;location;lat;lon;timestamp;temperature;humidity
11619;DHT22;5865;48.776;9.280;2022-09-24T00:01:10;10.00;99.90
11619;DHT22;5865;48.776;9.280;2022-09-24T00:03:39;10.10;99.90
11619;DHT22;5865;48.776;9.280;2022-09-24T00:06:07;10.10;99.90
11619;DHT22;5865;48.776;9.280;2022-09-24T00:08:34;10.10;99.90
11619;DHT22;5865;48.776;9.280;2022-09-24T00:11:03;10.20;99.90
11619;DHT22;5865;48.776;9.280;2022-09-24T00:13:32;10.20;99.90
11619;DHT22;5865;48.776;9.280;2022-09-24T00:16:02;10.20;99.90
11619;DHT22;5865;48.776;9.280;2022-09-24T00:18:31;10.20;99.90
11619;DHT22;5865;48.776;9.280;2022-09-24T00:20:58;10.20;99.90
11619;DHT22;5865;48.776;9.280;2022-09-24T00:23:25;10.30;99.90
11619;DHT22;5865;48.776;9.280;2022-09-24T00:25:52;10.30;99.90
11619;DHT22;5865;48.776;9.280;2022-09-24T00:28:37;10.20;99.90
11619;DHT22;5865;48.776;9.280;2022-09-24T00:31:05;10.20;99.90
11619;DHT22;5865;48.776;9.280;2022-09-24T00:33:34;10.30;99.90
11619;DHT22;5865;48.776;9.280;2022-09-24T00:36:03;10.20;99.90
11619;DHT22;5865;48.776;9.280;2022-09-24T00:38:31;10.30;99.90
11619;DHT22;5865;48.776;9.280;2022-09-24T00:40:58;10.30;99.90
11619;DHT22;5865;48.776;9.280;2022-09-24T00:43:27;10.30;99.90
11619;DHT22;5865;48.776;9.280;2022-09-24T00:45:57;10.30;99.90
11619;DHT22;5865;48.776;9.280;2022-09-24T00:50:55;10.20;99.90
11619;DHT22;5865;48.776;9.280;2022-09-24T00:53:22;10.10;99.90
11619;DHT22;5865;48.776;9.280;2022-09-24T00:55:55;10.10;99.90
11619;DHT22;5865;48.776;9.280;2022-09-24T00:58:22;10.10;99.90
11619;DHT22;5865;48.776;9.280;2022-09-24T01:00:53;10.10;99.90
11619;DHT22;5865;48.776;9.280;2022-09-24T01:03:24;10.00;99.90
11619;DHT22;5865;48.776;9.280;2022-09-24T01:05:52;10.10;99.90
11619;DHT22;5865;48.776;9.280;2022-09-24T01:08:21;10.10;99.90
11619;DHT22;5865;48.776;9.280;2022-09-24T01:11:06;10.10;99.90
11619;DHT22;5865;48.776;9.280;2022-09-24T01:14:00;9.90;99.90
11619;DHT22;5865;48.776;9.280;2022-09-24T01:16:36;9.80;99.90
11619;DHT22;5865;48.776;9.280;2022-09-24T01:19:14;9.80;99.90
11619;DHT22;5865;48.776;9.280;2022-09-24T01:21:46;9.70;99.90
11619;DHT22;5865;48.776;9.280;2022-09-24T01:24:34;9.70;99.90
11619;DHT22;5865;48.776;9.280;2022-09-24T01:27:11;9.70;99.90
11619;DHT22;5865;48.776;9.280;2022-09-24T01:29:49;9.70;99.90
11619;DHT22;5865;48.776;9.280;2022-09-24T01:32:22;9.70;99.90
11619;DHT22;5865;48.776;9.280;2022-09-24T01:34:54;9.80;99.90
11619;DHT22;5865;48.776;9.280;2022-09-24T01:37:24;9.70;99.90
11619;DHT22;5865;48.776;9.280;2022-09-24T01:39:53;9.70;99.90
11619;DHT22;5865;48.776;9.280;2022-09-24T01:42:23;9.60;99.90
11619;DHT22;5865;48.776;9.280;2022-09-24T01:44:53;9.60;99.90
11619;DHT22;5865;48.776;9.280;2022-09-24T01:47:28;9.50;99.90
11619;DHT22;5865;48.776;9.280;2022-09-24T01:49:55;9.40;99.90
11619;DHT22;5865;48.776;9.280;2022-09-24T01:52:25;9.40;99.90
11619;DHT22;5865;48.776;9.280;2022-09-24T01:54:56;9.20;99.90
11619;DHT22;5865;48.776;9.280;2022-09-24T01:57:24;9.10;99.90
11619;DHT22;5865;48.776;9.280;2022-09-24T01:59:57;9.10;99.90
11619;DHT22;5865;48.776;9.280;2022-09-24T02:02:28;9.00;99.90
11619;DHT22;5865;48.776;9.280;2022-09-24T02:04:59;9.00;99.90
11619;DHT22;5865;48.776;9.280;2022-09-24T02:07:32;9.00;99.90
11619;DHT22;5865;48.776;9.280;2022-09-24T02:10:00;9.00;99.90
11619;DHT22;5865;48.776;9.280;2022-09-24T02:12:31;8.90;99.90
11619;DHT22;5865;48.776;9.280;2022-09-24T02:15:05;8.90;99.90
11619;DHT22;5865;48.776;9.280;2022-09-24T02:17:37;8.90;99.90
11619;DHT22;5865;48.776;9.280;2022-09-24T02:20:12;8.90;99.90
11619;DHT22;5865;48.776;9.280;2022-09-24T02:22:40;8.80;99.90
11619;DHT22;5865;48.776;9.280;2022-09-24T02:25:12;8.80;99.90
11619;DHT22;5865;48.776;9.280;2022-09-24T02:27:40;8.90;99.90
11619;DHT22;5865;48.776;9.280;2022-09-24T02:30:09;8.90;99.90
11619;DHT22;5865;48.776;9.280;2022-09-24T02:32:39;9.00;99.90
11619;DHT22;5865;48.776;9.280;2022-09-24T02:35:10;9.00;99.90
11619;DHT22;5865;48.776;9.280;2022-09-24T02:37:38;9.10;99.90
11619;DHT22;5865;48.776;9.280;2022-09-24T02:40:08;9.50;99.90
11619;DHT22;5865;48.776;9.280;2022-09-24T02:45:06;9.20;99.90
11619;DHT22;5865;48.776;9.280;2022-09-24T02:47:34;9.20;99.90
11619;DHT22;5865;48.776;9.280;2022-09-24T02:52:29;9.30;99.90
11619;DHT22;5865;48.776;9.280;2022-09-24T02:54:56;9.30;99.90
11619;DHT22;5865;48.776;9.280;2022-09-24T02:57:23;9.30;99.90
11619;DHT22;5865;48.776;9.280;2022-09-24T02:59:50;9.40;99.90
11619;DHT22;5865;48.776;9.280;2022-09-24T03:04:45;9.40;99.90
11619;DHT22;5865;48.776;9.280;2022-09-24T03:07:12;9.50;99.90
11619;DHT22;5865;48.776;9.280;2022-09-24T03:09:40;9.50;99.90
11619;DHT22;5865;48.776;9.280;2022-09-24T03:17:01;9.50;99.90
11619;DHT22;5865;48.776;9.280;2022-09-24T03:19:28;9.50;99.90
11619;DHT22;5865;48.776;9.280;2022-09-24T03:21:56;9.60;99.90
11619;DHT22;5865;48.776;9.280;2022-09-24T03:29:19;9.70;99.90
11619;DHT22;5865;48.776;9.280;2022-09-24T03:32:06;9.80;99.90
11619;DHT22;5865;48.776;9.280;2022-09-24T03:34:32;9.80;99.90
11619;DHT22;5865;48.776;9.280;2022-09-24T03:37:00;9.80;99.90
11619;DHT22;5865;48.776;9.280;2022-09-24T03:39:27;9.80;99.90
11619;DHT22;5865;48.776;9.280;2022-09-24T03:44:21;9.80;99.90
11619;DHT22;5865;48.776;9.280;2022-09-24T03:46:48;9.90;99.90
11619;DHT22;5865;48.776;9.280;2022-09-24T03:51:42;9.90;99.90
11619;DHT22;5865;48.776;9.280;2022-09-24T03:54:11;9.90;99.90
11619;DHT22;5865;48.776;9.280;2022-09-24T03:56:38;10.00;99.90
11619;DHT22;5865;48.776;9.280;2022-09-24T03:59:05;10.00;99.90
11619;DHT22;5865;48.776;9.280;2022-09-24T04:01:32;10.00;99.90
11619;DHT22;5865;48.776;9.280;2022-09-24T04:04:02;10.10;99.90
11619;DHT22;5865;48.776;9.280;2022-09-24T04:08:56;10.30;99.90
11619;DHT22;5865;48.776;9.280;2022-09-24T04:16:21;10.40;99.90
11619;DHT22;5865;48.776;9.280;2022-09-24T04:18:48;10.50;99.90
11619;DHT22;5865;48.776;9.280;2022-09-24T04:21:15;10.50;99.90
11619;DHT22;5865;48.776;9.280;2022-09-24T04:23:43;10.60;99.90
11619;DHT22;5865;48.776;9.280;2022-09-24T04:28:38;10.70;99.90
11619;DHT22;5865;48.776;9.280;2022-09-24T04:31:05;10.70;99.90
11619;DHT22;5865;48.776;9.280;2022-09-24T04:33:32;10.70;99.90
11619;DHT22;5865;48.776;9.280;2022-09-24T04:35:59;10.80;99.90
11619;DHT22;5865;48.776;9.280;2022-09-24T04:38:26;10.80;99.90
11619;DHT22;5865;48.776;9.280;2022-09-24T04:43:20;10.90;99.90
11619;DHT22;5865;48.776;9.280;2022-09-24T04:45:48;10.80;99.90
11619;DHT22;5865;48.776;9.280;2022-09-24T04:48:16;10.80;99.90
11619;DHT22;5865;48.776;9.280;2022-09-24T04:50:43;10.80;99.90
11619;DHT22;5865;48.776;9.280;2022-09-24T04:53:10;10.80;99.90
11619;DHT22;5865;48.776;9.280;2022-09-24T04:55:37;10.70;99.90
11619;DHT22;5865;48.776;9.280;2022-09-24T05:03:01;10.60;99.90
11619;DHT22;5865;48.776;9.280;2022-09-24T05:05:29;10.60;99.90
11619;DHT22;5865;48.776;9.280;2022-09-24T05:07:56;10.50;99.90
11619;DHT22;5865;48.776;9.280;2022-09-24T05:10:24;10.50;99.90
11619;DHT22;5865;48.776;9.280;2022-09-24T05:12:51;10.50;99.90
11619;DHT22;5865;48.776;9.280;2022-09-24T05:15:18;10.50;99.90
11619;DHT22;5865;48.776;9.280;2022-09-24T05:20:14;10.40;99.90
11619;DHT22;5865;48.776;9.280;2022-09-24T05:22:41;10.50;99.90
11619;DHT22;5865;48.776;9.280;2022-09-24T05:25:09;10.40;99.90
11619;DHT22;5865;48.776;9.280;2022-09-24T05:30:03;10.50;99.90
11619;DHT22;5865;48.776;9.280;2022-09-24T05:32:31;10.50;99.90
11619;DHT22;5865;48.776;9.280;2022-09-24T05:35:00;10.60;99.90
11619;DHT22;5865;48.776;9.280;2022-09-24T05:37:28;10.60;99.90
11619;DHT22;5865;48.776;9.280;2022-09-24T05:39:55;10.60;99.90
11619;DHT22;5865;48.776;9.280;2022-09-24T05:42:42;10.60;99.90
11619;DHT22;5865;48.776;9.280;2022-09-24T05:45:11;10.80;99.90
11619;DHT22;5865;48.776;9.280;2022-09-24T05:47:42;10.80;99.90
11619;DHT22;5865;48.776;9.280;2022-09-24T05:50:09;10.80;99.90
11619;DHT22;5865;48.776;9.280;2022-09-24T05:52:39;10.90;99.90
11619;DHT22;5865;48.776;9.280;2022-09-24T05:55:08;10.90;99.90
11619;DHT22;5865;48.776;9.280;2022-09-24T05:57:35;10.90;99.90
11619;DHT22;5865;48.776;9.280;2022-09-24T06:00:04;12.30;99.90
11619;DHT22;5865;48.776;9.280;2022-09-24T06:10:01;11.20;99.90
11619;DHT22;5865;48.776;9.280;2022-09-24T06:12:28;11.30;99.90
11619;DHT22;5865;48.776;9.280;2022-09-24T06:14:55;11.60;99.90
11619;DHT22;5865;48.776;9.280;2022-09-24T06:19:49;11.70;99.90
11619;DHT22;5865;48.776;9.280;2022-09-24T06:24:45;12.00;99.90
11619;DHT22;5865;48.776;9.280;2022-09-24T06:27:13;12.20;99.90
11619;DHT22;5865;48.776;9.280;2022-09-24T06:29:40;12.20;99.90
11619;DHT22;5865;48.776;9.280;2022-09-24T06:37:01;12.10;99.90
11619;DHT22;5865;48.776;9.280;2022-09-24T06:44:27;12.20;99.90
11619;DHT22;5865;48.776;9.280;2022-09-24T06:49:22;12.40;99.90
11619;DHT22;5865;48.776;9.280;2022-09-24T06:54:16;12.50;99.90
11619;DHT22;5865;48.776;9.280;2022-09-24T06:56:43;12.60;99.90
11619;DHT22;5865;48.776;9.280;2022-09-24T06:59:10;12.60;99.90
11619;DHT22;5865;48.776;9.280;2022-09-24T07:06:34;12.60;99.90
11619;DHT22;5865;48.776;9.280;2022-09-24T07:09:14;12.70;99.90
11619;DHT22;5865;48.776;9.280;2022-09-24T07:14:11;13.10;99.90
11619;DHT22;5865;48.776;9.280;2022-09-24T07:16:39;13.50;99.90
11619;DHT22;5865;48.776;9.280;2022-09-24T07:24:02;13.60;99.90
11619;DHT22;5865;48.776;9.280;2022-09-24T07:26:29;13.70;99.90
11619;DHT22;5865;48.776;9.280;2022-09-24T07:28:56;13.70;99.90
11619;DHT22;5865;48.776;9.280;2022-09-24T07:31:23;13.90;99.90
11619;DHT22;5865;48.776;9.280;2022-09-24T07:33:52;14.10;99.90
11619;DHT22;5865;48.776;9.280;2022-09-24T07:36:19;14.10;99.90
11619;DHT22;5865;48.776;9.280;2022-09-24T07:38:46;14.20;99.90
11619;DHT22;5865;48.776;9.280;2022-09-24T07:41:13;14.10;99.90
11619;DHT22;5865;48.776;9.280;2022-09-24T07:43:40;14.50;99.90
11619;DHT22;5865;48.776;9.280;2022-09-24T07:46:08;14.60;99.90
11619;DHT22;5865;48.776;9.280;2022-09-24T07:48:35;14.60;99.90
11619;DHT22;5865;48.776;9.280;2022-09-24T07:51:04;14.60;99.90
11619;DHT22;5865;48.776;9.280;2022-09-24T07:53:34;14.70;99.90
11619;DHT22;5865;48.776;9.280;2022-09-24T07:56:03;14.90;99.90
11619;DHT22;5865;48.776;9.280;2022-09-24T07:58:30;15.00;99.90
11619;DHT22;5865;48.776;9.280;2022-09-24T08:00:57;15.20;99.90
11619;DHT22;5865;48.776;9.280;2022-09-24T08:05:51;15.30;99.90
11619;DHT22;5865;48.776;9.280;2022-09-24T08:08:23;15.30;99.90
11619;DHT22;5865;48.776;9.280;2022-09-24T08:10:50;15.40;99.90
11619;DHT22;5865;48.776;9.280;2022-09-24T08:13:17;15.70;99.90
11619;DHT22;5865;48.776;9.280;2022-09-24T08:18:11;15.50;99.90
11619;DHT22;5865;48.776;9.280;2022-09-24T08:23:07;15.60;99.90
11619;DHT22;5865;48.776;9.280;2022-09-24T08:25:37;16.30;99.90
11619;DHT22;5865;48.776;9.280;2022-09-24T08:28:05;16.00;99.90
11619;DHT22;5865;48.776;9.280;2022-09-24T08:30:33;16.00;99.90
11619;DHT22;5865;48.776;9.280;2022-09-24T08:33:01;16.20;99.90
11619;DHT22;5865;48.776;9.280;2022-09-24T08:35:31;15.70;99.90
11619;DHT22;5865;48.776;9.280;2022-09-24T08:37:58;15.60;99.90
11619;DHT22;5865;48.776;9.280;2022-09-24T08:40:28;15.70;99.90
11619;DHT22;5865;48.776;9.280;2022-09-24T08:43:04;16.40;99.90
11619;DHT22;5865;48.776;9.280;2022-09-24T08:45:40;16.40;99.90
11619;DHT22;5865;48.776;9.280;2022-09-24T08:48:27;16.90;99.90
11619;DHT22;5865;48.776;9.280;2022-09-24T08:51:00;16.40;99.90
11619;DHT22;5865;48.776;9.280;2022-09-24T08:53:36;16.40;99.90
11619;DHT22;5865;48.776;9.280;2022-09-24T08:56:07;16.30;99.90
11619;DHT22;5865;48.776;9.280;2022-09-24T08:58:44;16.30;99.90
11619;DHT22;5865;48.776;9.280;2022-09-24T09:01:19;16.70;99.90
11619;DHT22;5865;48.776;9.280;2022-09-24T09:03:50;16.80;99.90
11619;DHT22;5865;48.776;9.280;2022-09-24T09:09:15;17.00;99.90
11619;DHT22;5865;48.776;9.280;2022-09-24T09:11:46;16.90;99.90
11619;DHT22;5865;48.776;9.280;2022-09-24T09:14:18;17.70;99.90
11619;DHT22;5865;48.776;9.280;2022-09-24T09:16:49;17.90;99.90
11619;DHT22;5865;48.776;9.280;2022-09-24T09:19:18;17.90;99.90
11619;DHT22;5865;48.776;9.280;2022-09-24T09:21:51;18.10;99.90
11619;DHT22;5865;48.776;9.280;2022-09-24T09:24:23;18.40;99.90
11619;DHT22;5865;48.776;9.280;2022-09-24T09:26:54;18.20;99.90
11619;DHT22;5865;48.776;9.280;2022-09-24T09:29:23;18.20;99.90
11619;DHT22;5865;48.776;9.280;2022-09-24T09:31:58;18.60;99.90
11619;DHT22;5865;48.776;9.280;2022-09-24T09:34:50;18.60;99.90
11619;DHT22;5865;48.776;9.280;2022-09-24T09:37:26;17.70;99.90
11619;DHT22;5865;48.776;9.280;2022-09-24T09:40:02;18.70;99.90
11619;DHT22;5865;48.776;9.280;2022-09-24T09:42:36;18.20;99.90
11619;DHT22;5865;48.776;9.280;2022-09-24T09:45:24;17.40;99.90
11619;DHT22;5865;48.776;9.280;2022-09-24T09:47:54;17.40;99.90
11619;DHT22;5865;48.776;9.280;2022-09-24T09:50:26;17.40;99.90
11619;DHT22;5865;48.776;9.280;2022-09-24T09:52:54;17.40;99.90
11619;DHT22;5865;48.776;9.280;2022-09-24T09:55:24;17.30;99.90
11619;DHT22;5865;48.776;9.280;2022-09-24T09:57:51;17.00;99.90
11619;DHT22;5865;48.776;9.280;2022-09-24T10:00:32;16.90;99.90
11619;DHT22;5865;48.776;9.280;2022-09-24T10:05:29;17.80;99.90
11619;DHT22;5865;48.776;9.280;2022-09-24T10:07:56;17.70;99.90
11619;DHT22;5865;48.776;9.280;2022-09-24T10:10:24;17.80;99.90
11619;DHT22;5865;48.776;9.280;2022-09-24T10:12:53;17.30;99.90
11619;DHT22;5865;48.776;9.280;2022-09-24T10:15:22;17.40;99.90
11619;DHT22;5865;48.776;9.280;2022-09-24T10:17:53;17.30;99.90
11619;DHT22;5865;48.776;9.280;2022-09-24T10:20:23;17.60;99.90
11619;DHT22;5865;48.776;9.280;2022-09-24T10:22:54;17.90;99.90
11619;DHT22;5865;48.776;9.280;2022-09-24T10:25:23;17.90;99.90
11619;DHT22;5865;48.776;9.280;2022-09-24T10:27:52;18.20;99.90
11619;DHT22;5865;48.776;9.280;2022-09-24T10:30:20;18.40;99.90
11619;DHT22;5865;48.776;9.280;2022-09-24T10:33:00;18.30;99.90
11619;DHT22;5865;48.776;9.280;2022-09-24T10:35:29;17.50;99.90
11619;DHT22;5865;48.776;9.280;2022-09-24T10:38:00;17.60;99.90
11619;DHT22;5865;48.776;9.280;2022-09-24T10:40:29;18.00;99.90
11619;DHT22;5865;48.776;9.280;2022-09-24T10:42:58;18.10;99.90
11619;DHT22;5865;48.776;9.280;2022-09-24T10:45:44;18.10;99.90
11619;DHT22;5865;48.776;9.280;2022-09-24T10:48:20;17.40;99.90
11619;DHT22;5865;48.776;9.280;2022-09-24T10:50:53;17.20;99.90
11619;DHT22;5865;48.776;9.280;2022-09-24T10:53:30;17.20;99.90
11619;DHT22;5865;48.776;9.280;2022-09-24T10:56:08;17.10;99.90
11619;DHT22;5865;48.776;9.280;2022-09-24T10:59:01;17.60;99.90
11619;DHT22;5865;48.776;9.280;2022-09-24T11:01:40;17.60;99.90
11619;DHT22;5865;48.776;9.280;2022-09-24T11:07:33;17.90;99.90
11619;DHT22;5865;48.776;9.280;2022-09-24T11:10:12;17.80;99.90
11619;DHT22;5865;48.776;9.280;2022-09-24T11:12:51;18.10;99.90
11619;DHT22;5865;48.776;9.280;2022-09-24T11:18:08;17.50;99.90
11619;DHT22;5865;48.776;9.280;2022-09-24T11:20:50;17.60;99.90
11619;DHT22;5865;48.776;9.280;2022-09-24T11:23:37;17.00;99.90
11619;DHT22;5865;48.776;9.280;2022-09-24T11:26:15;16.70;99.90
11619;DHT22;5865;48.776;9.280;2022-09-24T11:31:32;15.90;99.90
11619;DHT22;5865;48.776;9.280;2022-09-24T11:34:19;15.60;99.90
11619;DHT22;5865;48.776;9.280;2022-09-24T11:37:03;15.90;99.90
11619;DHT22;5865;48.776;9.280;2022-09-24T11:45:25;16.30;99.90
11619;DHT22;5865;48.776;9.280;2022-09-24T11:50:44;16.90;99.90
11619;DHT22;5865;48.776;9.280;2022-09-24T11:53:29;17.10;99.90
11619;DHT22;5865;48.776;9.280;2022-09-24T11:56:04;16.80;99.90
11619;DHT22;5865;48.776;9.280;2022-09-24T11:58:40;16.90;99.90
11619;DHT22;5865;48.776;9.280;2022-09-24T12:01:13;16.40;99.90
11619;DHT22;5865;48.776;9.280;2022-09-24T12:06:16;16.30;99.90
11619;DHT22;5865;48.776;9.280;2022-09-24T12:08:49;16.60;99.90
11619;DHT22;5865;48.776;9.280;2022-09-24T12:11:25;16.40;99.90
11619;DHT22;5865;48.776;9.280;2022-09-24T12:13:59;16.40;99.90
11619;DHT22;5865;48.776;9.280;2022-09-24T12:19:04;16.60;99.90
11619;DHT22;5865;48.776;9.280;2022-09-24T12:21:38;16.70;99.90
11619;DHT22;5865;48.776;9.280;2022-09-24T12:24:12;16.70;99.90
11619;DHT22;5865;48.776;9.280;2022-09-24T12:26:44;17.20;99.90
11619;DHT22;5865;48.776;9.280;2022-09-24T12:29:31;17.20;99.90
11619;DHT22;5865;48.776;9.280;2022-09-24T12:32:20;17.30;99.90
11619;DHT22;5865;48.776;9.280;2022-09-24T12:35:21;17.40;99.90
11619;DHT22;5865;48.776;9.280;2022-09-24T12:37:51;17.30;99.90
11619;DHT22;5865;48.776;9.280;2022-09-24T12:40:42;16.90;99.90
11619;DHT22;5865;48.776;9.280;2022-09-24T12:45:54;16.50;99.90
11619;DHT22;5865;48.776;9.280;2022-09-24T12:50:56;16.40;99.90
11619;DHT22;5865;48.776;9.280;2022-09-24T12:53:31;16.30;99.90
11619;DHT22;5865;48.776;9.280;2022-09-24T12:58:36;16.40;99.90
11619;DHT22;5865;48.776;9.280;2022-09-24T13:01:07;16.40;99.90
11619;DHT22;5865;48.776;9.280;2022-09-24T13:03:36;16.60;99.90
11619;DHT22;5865;48.776;9.280;2022-09-24T13:06:19;16.70;99.90
11619;DHT22;5865;48.776;9.280;2022-09-24T13:08:48;17.20;99.90
11619;DHT22;5865;48.776;9.280;2022-09-24T13:11:31;17.50;99.90
11619;DHT22;5865;48.776;9.280;2022-09-24T13:14:18;17.70;99.90
11619;DHT22;5865;48.776;9.280;2022-09-24T13:16:49;17.60;99.90
11619;DHT22;5865;48.776;9.280;2022-09-24T13:19:27;17.60;99.90
11619;DHT22;5865;48.776;9.280;2022-09-24T13:21:57;17.30;99.90
11619;DHT22;5865;48.776;9.280;2022-09-24T13:24:31;17.10;99.90
11619;DHT22;5865;48.776;9.280;2022-09-24T13:27:17;17.30;99.90
11619;DHT22;5865;48.776;9.280;2022-09-24T13:30:01;17.30;99.90
11619;DHT22;5865;48.776;9.280;2022-09-24T13:35:03;17.00;99.90
11619;DHT22;5865;48.776;9.280;2022-09-24T13:37:34;16.70;99.90
11619;DHT22;5865;48.776;9.280;2022-09-24T13:40:06;16.70;99.90
11619;DHT22;5865;48.776;9.280;2022-09-24T13:42:47;16.50;99.90
11619;DHT22;5865;48.776;9.280;2022-09-24T13:47:54;16.60;99.90
11619;DHT22;5865;48.776;9.280;2022-09-24T13:50:25;16.60;99.90
11619;DHT22;5865;48.776;9.280;2022-09-24T13:52:55;17.10;99.90
11619;DHT22;5865;48.776;9.280;2022-09-24T13:55:31;17.20;99.90
11619;DHT22;5865;48.776;9.280;2022-09-24T14:00:56;17.00;99.90
11619;DHT22;5865;48.776;9.280;2022-09-24T14:15:50;17.60;99.90
11619;DHT22;5865;48.776;9.280;2022-09-24T14:18:23;18.60;99.90
11619;DHT22;5865;48.776;9.280;2022-09-24T14:20:55;18.60;99.90
11619;DHT22;5865;48.776;9.280;2022-09-24T14:23:25;18.60;99.90
11619;DHT22;5865;48.776;9.280;2022-09-24T14:25:54;18.30;99.90
11619;DHT22;5865;48.776;9.280;2022-09-24T14:28:22;18.10;99.90
11619;DHT22;5865;48.776;9.280;2022-09-24T14:33:23;18.20;99.90
11619;DHT22;5865;48.776;9.280;2022-09-24T14:35:52;18.20;99.90
11619;DHT22;5865;48.776;9.280;2022-09-24T14:38:22;18.30;99.90
11619;DHT22;5865;48.776;9.280;2022-09-24T14:40:53;18.20;99.90
11619;DHT22;5865;48.776;9.280;2022-09-24T14:43:25;17.50;99.90
11619;DHT22;5865;48.776;9.280;2022-09-24T14:46:01;17.00;99.90
11619;DHT22;5865;48.776;9.280;2022-09-24T14:48:33;17.00;99.90
11619;DHT22;5865;48.776;9.280;2022-09-24T14:51:01;16.80;99.90
11619;DHT22;5865;48.776;9.280;2022-09-24T14:53:32;16.80;99.90
11619;DHT22;5865;48.776;9.280;2022-09-24T14:58:33;17.00;99.90
11619;DHT22;5865;48.776;9.280;2022-09-24T15:01:04;17.00;99.90
11619;DHT22;5865;48.776;9.280;2022-09-24T15:03:43;17.00;99.90
11619;DHT22;5865;48.776;9.280;2022-09-24T15:06:18;17.60;99.90
11619;DHT22;5865;48.776;9.280;2022-09-24T15:08:56;17.10;99.90
11619;DHT22;5865;48.776;9.280;2022-09-24T15:11:26;17.30;99.90
11619;DHT22;5865;48.776;9.280;2022-09-24T15:13:59;17.60;99.90
11619;DHT22;5865;48.776;9.280;2022-09-24T15:16:29;17.30;99.90
11619;DHT22;5865;48.776;9.280;2022-09-24T15:19:12;17.30;99.90
11619;DHT22;5865;48.776;9.280;2022-09-24T15:21:41;17.30;99.90
11619;DHT22;5865;48.776;9.280;2022-09-24T15:26:40;17.00;99.90
11619;DHT22;5865;48.776;9.280;2022-09-24T15:29:16;17.00;99.90
11619;DHT22;5865;48.776;9.280;2022-09-24T15:31:44;16.90;99.90
11619;DHT22;5865;48.776;9.280;2022-09-24T15:34:15;16.90;99.90
11619;DHT22;5865;48.776;9.280;2022-09-24T15:36:44;16.60;99.90
11619;DHT22;5865;48.776;9.280;2022-09-24T15:39:11;16.60;99.90
11619;DHT22;5865;48.776;9.280;2022-09-24T15:44:10;16.20;99.90
11619;DHT22;5865;48.776;9.280;2022-09-24T15:46:43;16.30;99.90
11619;DHT22;5865;48.776;9.280;2022-09-24T15:51:52;16.40;99.90
11619;DHT22;5865;48.776;9.280;2022-09-24T15:59:17;16.70;99.90
11619;DHT22;5865;48.776;9.280;2022-09-24T16:01:45;16.60;99.90
11619;DHT22;5865;48.776;9.280;2022-09-24T16:04:12;16.50;99.90
11619;DHT22;5865;48.776;9.280;2022-09-24T16:06:39;16.70;99.90
11619;DHT22;5865;48.776;9.280;2022-09-24T16:09:09;16.80;99.90
11619;DHT22;5865;48.776;9.280;2022-09-24T16:11:36;16.80;99.90
11619;DHT22;5865;48.776;9.280;2022-09-24T16:14:02;16.50;99.90
11619;DHT22;5865;48.776;9.280;2022-09-24T16:16:31;16.40;99.90
11619;DHT22;5865;48.776;9.280;2022-09-24T16:18:58;15.90;99.90
11619;DHT22;5865;48.776;9.280;2022-09-24T16:26:21;15.40;99.90
11619;DHT22;5865;48.776;9.280;2022-09-24T16:28:48;15.30;99.90
11619;DHT22;5865;48.776;9.280;2022-09-24T16:31:16;15.30;99.90
11619;DHT22;5865;48.776;9.280;2022-09-24T16:33:43;15.30;99.90
11619;DHT22;5865;48.776;9.280;2022-09-24T16:36:11;15.30;99.90
11619;DHT22;5865;48.776;9.280;2022-09-24T16:38:38;15.20;99.90
11619;DHT22;5865;48.776;9.280;2022-09-24T16:41:06;15.20;99.90
11619;DHT22;5865;48.776;9.280;2022-09-24T16:46:06;14.80;99.90
11619;DHT22;5865;48.776;9.280;2022-09-24T16:48:33;14.80;99.90
11619;DHT22;5865;48.776;9.280;2022-09-24T16:51:01;14.70;99.90
11619;DHT22;5865;48.776;9.280;2022-09-24T16:53:28;14.70;99.90
11619;DHT22;5865;48.776;9.280;2022-09-24T16:56:01;14.50;99.90
11619;DHT22;5865;48.776;9.280;2022-09-24T16:58:29;14.50;99.90
11619;DHT22;5865;48.776;9.280;2022-09-24T17:00:58;14.40;99.90
11619;DHT22;5865;48.776;9.280;2022-09-24T17:03:25;14.40;99.90
11619;DHT22;5865;48.776;9.280;2022-09-24T17:05:52;14.30;99.90
11619;DHT22;5865;48.776;9.280;2022-09-24T17:08:19;14.20;99.90
11619;DHT22;5865;48.776;9.280;2022-09-24T17:10:49;14.10;99.90
11619;DHT22;5865;48.776;9.280;2022-09-24T17:13:15;14.00;99.90
11619;DHT22;5865;48.776;9.280;2022-09-24T17:15:42;14.00;99.90
11619;DHT22;5865;48.776;9.280;2022-09-24T17:20:38;13.70;99.90
11619;DHT22;5865;48.776;9.280;2022-09-24T17:23:05;13.70;99.90
11619;DHT22;5865;48.776;9.280;2022-09-24T17:25:32;13.70;99.90
11619;DHT22;5865;48.776;9.280;2022-09-24T17:27:58;13.70;99.90
11619;DHT22;5865;48.776;9.280;2022-09-24T17:30:26;13.80;99.90
11619;DHT22;5865;48.776;9.280;2022-09-24T17:32:54;13.60;99.90
11619;DHT22;5865;48.776;9.280;2022-09-24T17:35:22;13.50;99.90
11619;DHT22;5865;48.776;9.280;2022-09-24T17:37:49;13.60;99.90
11619;DHT22;5865;48.776;9.280;2022-09-24T17:40:16;13.60;99.90
11619;DHT22;5865;48.776;9.280;2022-09-24T17:42:43;13.70;99.90
11619;DHT22;5865;48.776;9.280;2022-09-24T17:45:11;13.70;99.90
11619;DHT22;5865;48.776;9.280;2022-09-24T17:47:38;13.70;99.90
11619;DHT22;5865;48.776;9.280;2022-09-24T17:55:21;13.70;99.90
11619;DHT22;5865;48.776;9.280;2022-09-24T17:57:48;13.60;99.90
11619;DHT22;5865;48.776;9.280;2022-09-24T18:00:20;13.50;99.90
11619;DHT22;5865;48.776;9.280;2022-09-24T18:02:47;13.50;99.90
11619;DHT22;5865;48.776;9.280;2022-09-24T18:07:43;13.50;99.90
11619;DHT22;5865;48.776;9.280;2022-09-24T18:10:09;13.50;99.90
11619;DHT22;5865;48.776;9.280;2022-09-24T18:15:04;13.50;99.90
11619;DHT22;5865;48.776;9.280;2022-09-24T18:17:31;13.50;99.90
11619;DHT22;5865;48.776;9.280;2022-09-24T18:22:25;13.40;99.90
11619;DHT22;5865;48.776;9.280;2022-09-24T18:24:54;13.30;99.90
11619;DHT22;5865;48.776;9.280;2022-09-24T18:34:51;13.20;99.90
11619;DHT22;5865;48.776;9.280;2022-09-24T18:37:18;13.20;99.90
11619;DHT22;5865;48.776;9.280;2022-09-24T18:39:45;13.20;99.90
11619;DHT22;5865;48.776;9.280;2022-09-24T18:52:06;13.10;99.90
11619;DHT22;5865;48.776;9.280;2022-09-24T18:57:00;13.10;99.90
11619;DHT22;5865;48.776;9.280;2022-09-24T18:59:28;13.10;99.90
11619;DHT22;5865;48.776;9.280;2022-09-24T19:04:28;13.00;99.90
11619;DHT22;5865;48.776;9.280;2022-09-24T19:06:55;13.00;99.90
11619;DHT22;5865;48.776;9.280;2022-09-24T19:09:22;13.00;99.90
11619;DHT22;5865;48.776;9.280;2022-09-24T19:11:48;13.00;99.90
11619;DHT22;5865;48.776;9.280;2022-09-24T19:14:15;13.00;99.90
11619;DHT22;5865;48.776;9.280;2022-09-24T19:16:45;13.00;99.90
11619;DHT22;5865;48.776;9.280;2022-09-24T19:21:40;13.00;99.90
11619;DHT22;5865;48.776;9.280;2022-09-24T19:24:07;13.00;99.90
11619;DHT22;5865;48.776;9.280;2022-09-24T19:26:35;13.00;99.90
11619;DHT22;5865;48.776;9.280;2022-09-24T19:29:03;13.00;99.90
11619;DHT22;5865;48.776;9.280;2022-09-24T19:31:32;13.00;99.90
11619;DHT22;5865;48.776;9.280;2022-09-24T19:34:03;13.00;99.90
11619;DHT22;5865;48.776;9.280;2022-09-24T19:36:31;13.00;99.90
11619;DHT22;5865;48.776;9.280;2022-09-24T19:41:31;13.00;99.90
11619;DHT22;5865;48.776;9.280;2022-09-24T19:43:58;13.00;99.90
11619;DHT22;5865;48.776;9.280;2022-09-24T19:46:26;13.00;99.90